Date,TemperatureHighF,TemperatureAvgF,TemperatureLowF,DewpointHighF,DewpointAvgF,DewpointLowF,HumidityHigh,HumidityAvg,HumidityLow,PressureMaxIn,PressureMinIn,WindSpeedMaxMPH,WindSpeedAvgMPH,GustSpeedMaxMPH,PrecipitationSumIn
2013-1-1,28,18,12,12,6,-1,80,62,36,0.00,40.00,18,4,24,0.00
2013-1-2,27,18,13,10,3,-6,77,53,26,0.00,40.00,21,7,24,0.00
2013-1-3,29,21,14,7,-4,-14,47,33,20,0.00,40.00,12,3,13,0.00
2013-1-4,37,22,10,11,2,-2,74,43,20,0.00,40.00,7,2,9,0.00
2013-1-5,32,24,12,13,6,-2,66,46,26,0.00,40.00,16,4,21,0.00
2013-1-6,44,29,13,12,6,-3,74,39,21,0.00,40.00,32,8,37,0.00
2013-1-7,36,29,19,16,9,2,62,43,27,0.00,40.00,30,10,37,0.00
2013-1-8,38,31,23,19,16,12,68,52,38,0.00,40.00,41,17,46,0.00
2013-1-9,46,35,24,25,16,8,77,49,22,0.00,40.00,45,27,53,0.00
2013-1-10,38,34,23,22,16,12,82,50,37,0.00,40.00,47,30,53,0.00
2013-1-11,29,8,-3,21,5,-7,96,86,70,0.00,40.00,31,10,37,0.47
2013-1-12,6,-1,-5,1,-5,-9,88,83,75,0.00,40.00,13,5,14,0.00
2013-1-13,5,-1,-6,1,-5,-11,86,80,70,0.00,40.00,10,2,12,0.00
2013-1-14,12,2,-7,-1,-7,-13,83,66,38,0.00,40.00,12,4,14,0.00
2013-1-15,32,23,7,18,11,-4,75,60,48,0.00,40.00,14,5,18,0.00
2013-1-16,35,27,18,22,14,8,81,59,40,0.00,40.00,22,6,26,0.00
2013-1-17,39,31,21,18,8,0,55,39,21,0.00,40.00,16,5,17,0.00
2013-1-18,49,40,30,22,6,0,39,25,15,0.00,40.00,24,7,34,0.00
2013-1-19,46,36,29,15,3,-6,38,24,14,0.00,40.00,21,6,23,0.00
2013-1-20,39,31,23,15,7,1,60,37,22,0.00,40.00,13,5,14,0.00
2013-1-21,47,38,27,15,6,-4,48,28,13,0.00,40.00,20,7,23,0.00
2013-1-22,52,42,34,15,-2,-12,28,16,10,0.00,40.00,35,4,38,0.00
2013-1-23,52,45,40,8,-1,-9,21,15,9,0.00,40.00,39,27,44,0.00
2013-1-24,49,41,32,27,18,4,65,41,20,0.00,40.00,32,13,37,0.00
2013-1-25,42,35,27,20,16,13,62,47,31,0.00,40.00,19,7,25,0.00
2013-1-26,44,38,33,28,24,13,73,56,37,0.00,40.00,29,14,35,0.00
2013-1-27,40,35,23,29,26,20,97,69,54,0.00,40.00,37,23,44,0.03
2013-1-28,23,19,12,21,15,-3,96,84,41,0.00,40.00,10,4,12,0.02
2013-1-29,23,15,7,13,2,-10,93,61,31,0.00,40.00,15,5,22,0.18
2013-1-30,37,25,13,18,8,-6,62,49,39,0.00,40.00,18,8,21,0.00
2013-1-31,37,32,27,17,14,9,53,46,37,0.00,40.00,23,10,26,0.00
2013-2-1,40,31,24,22,16,9,72,52,35,0.00,40.00,32,12,39,0.00
2013-2-2,45,33,23,19,9,-2,57,38,16,0.00,40.00,12,4,14,0.00
2013-2-3,45,34,27,18,10,5,53,37,20,0.00,40.00,13,4,21,0.00
2013-2-4,44,36,27,17,9,1,50,33,20,0.00,40.00,19,7,21,0.00
2013-2-5,45,38,31,23,17,4,63,43,24,0.00,40.00,30,12,34,0.00
2013-2-6,40,34,23,16,8,1,67,35,21,0.00,40.00,17,6,22,0.00
2013-2-7,38,27,20,13,4,-9,64,39,15,0.00,40.00,29,9,34,0.00
2013-2-8,31,26,22,27,16,-1,98,70,25,0.00,40.00,16,5,19,0.15
2013-2-9,22,21,20,21,20,18,96,96,95,0.00,40.00,16,7,19,0.49
2013-2-10,20,16,9,19,15,8,96,94,90,0.00,40.00,12,5,15,0.37
2013-2-11,22,14,4,10,1,-12,89,60,25,0.00,40.00,12,5,13,0.00
2013-2-12,27,20,9,13,3,-7,68,47,29,0.00,40.00,13,4,15,0.00
2013-2-13,41,30,22,19,14,11,63,50,35,0.00,40.00,15,6,17,0.00
2013-2-14,27,20,14,18,14,7,94,76,54,0.00,40.00,12,5,13,0.03
2013-2-15,35,25,14,16,11,6,82,57,32,0.00,40.00,21,8,26,0.00
2013-2-16,44,35,26,20,13,9,57,41,28,0.00,40.00,40,10,45,0.00
2013-2-17,38,30,17,23,13,-4,96,55,19,0.00,40.00,40,14,45,0.11
2013-2-18,27,20,16,16,5,-3,96,52,29,0.00,40.00,22,8,25,0.00
2013-2-19,33,25,18,13,7,0,64,46,33,0.00,40.00,30,15,32,0.00
2013-2-20,36,24,18,17,11,6,83,59,33,0.00,40.00,9,2,11,0.00
2013-2-21,22,18,16,17,15,13,95,86,71,0.00,40.00,12,4,12,0.00
2013-2-22,29,20,12,14,6,2,88,56,34,0.00,40.00,22,7,25,0.01
2013-2-23,34,25,18,23,16,4,97,69,44,0.00,40.00,35,13,42,0.40
2013-2-24,27,19,15,17,13,4,95,78,50,0.00,40.00,28,13,37,0.34
2013-2-25,35,23,15,16,6,-1,67,49,24,0.00,40.00,40,8,45,0.00
2013-2-26,27,20,16,16,11,6,88,66,53,0.00,40.00,16,6,19,0.03
2013-2-27,27,21,12,11,7,3,71,55,35,0.00,40.00,16,6,17,0.00
2013-2-28,41,28,17,14,6,-3,53,40,22,0.00,40.00,16,6,17,0.00
2013-3-1,46,36,24,26,17,7,61,47,35,0.00,40.00,17,6,20,0.00
2013-3-2,54,43,35,28,21,14,63,43,23,0.00,40.00,41,12,52,0.00
2013-3-3,44,39,23,31,22,10,84,52,31,0.00,40.00,33,18,45,0.00
2013-3-4,23,18,12,19,12,5,94,77,50,0.00,40.00,14,6,17,0.11
2013-3-5,35,24,11,16,8,-1,78,51,27,0.00,40.00,33,12,41,0.00
2013-3-6,45,37,29,28,16,5,72,41,29,0.00,40.00,39,24,47,0.00
2013-3-7,41,36,27,30,22,12,89,60,35,0.00,40.00,24,9,32,0.00
2013-3-8,42,34,30,29,24,21,95,65,51,0.00,40.00,11,3,12,0.00
2013-3-9,32,28,25,28,20,13,98,71,46,0.00,40.00,19,10,27,0.08
2013-3-10,47,34,21,21,13,4,67,42,27,0.00,40.00,14,4,19,0.00
2013-3-11,39,34,26,24,17,9,89,51,32,0.00,40.00,14,6,19,0.00
2013-3-12,45,32,19,24,19,11,93,63,35,0.00,40.00,24,5,29,0.00
2013-3-13,53,44,37,28,21,15,53,41,25,0.00,40.00,26,8,33,0.00
2013-3-14,56,49,41,27,21,15,46,33,25,0.00,40.00,30,13,37,0.00
2013-3-15,61,51,43,23,18,9,38,27,18,0.00,40.00,42,13,45,0.00
2013-3-16,51,40,29,26,18,6,80,46,16,0.00,40.00,26,6,28,0.00
2013-3-17,40,31,21,27,10,-3,82,44,25,0.00,40.00,52,26,69,0.00
2013-3-18,37,27,17,14,5,-1,63,41,21,0.00,40.00,35,15,45,0.00
2013-3-19,41,30,19,15,2,-5,81,32,15,0.00,40.00,32,7,44,0.00
2013-3-20,52,37,25,31,13,-10,81,40,13,0.00,40.00,32,15,41,0.00
2013-3-21,41,32,22,30,23,-2,97,71,33,0.00,40.00,31,10,35,0.17
2013-3-22,24,19,15,18,8,-4,94,65,33,0.00,40.00,17,5,23,0.36
2013-3-23,17,13,10,15,11,8,94,92,91,0.00,40.00,11,7,16,0.39
2013-3-25,32,23,11,17,5,-1,73,47,27,0.00,40.00,31,14,36,0.00
2013-3-26,44,33,24,22,10,-2,53,38,27,0.00,40.00,16,3,20,0.00
2013-3-27,48,38,26,25,18,14,62,46,32,0.00,40.00,14,4,17,0.00
2013-3-28,55,44,33,27,21,15,55,40,25,0.00,40.00,24,7,27,0.00
2013-3-29,57,47,41,29,24,19,57,41,26,0.00,40.00,24,6,28,0.00
2013-3-30,47,40,33,34,26,-100,96,62,38,0.00,40.00,12,5,16,0.00
2013-3-31,57,45,36,25,18,11,63,36,17,0.00,40.00,19,5,28,0.00
2013-4-1,47,38,27,25,23,21,79,56,37,0.00,40.00,14,6,16,0.00
2013-4-2,51,41,31,23,18,13,66,42,22,0.00,40.00,17,5,20,0.00
2013-4-3,58,48,38,27,18,11,52,31,19,0.00,40.00,24,7,29,0.00
2013-4-4,61,51,40,26,24,20,57,35,23,0.00,40.00,26,10,33,0.00
2013-4-5,57,49,39,32,24,16,50,37,25,0.00,40.00,34,17,44,0.00
2013-4-6,54,43,36,32,20,11,70,41,24,0.00,40.00,31,10,37,0.00
2013-4-7,52,41,35,32,25,19,88,55,32,0.00,40.00,39,21,52,0.01
2013-4-8,39,25,11,29,21,9,98,85,52,0.00,40.00,18,9,22,1.41
2013-4-9,14,10,8,12,8,6,93,91,90,0.00,40.00,17,11,23,1.11
2013-4-10,35,21,9,21,14,8,92,75,48,0.00,40.00,14,4,17,0.00
2013-4-11,44,35,18,31,25,17,97,69,53,0.00,40.00,14,4,16,0.04
2013-4-12,43,34,26,30,26,11,99,75,31,0.00,40.00,25,5,28,0.01
2013-4-13,44,38,29,33,22,6,80,52,34,0.00,40.00,51,23,70,0.00
2013-4-14,37,28,20,25,11,-2,97,55,22,0.00,40.00,24,9,32,0.01
2013-4-15,24,21,18,22,18,15,94,87,74,0.00,40.00,16,6,19,0.22
2013-4-16,19,16,14,17,14,11,95,90,82,0.00,40.00,21,10,24,0.48
2013-4-17,20,15,11,17,13,9,95,90,76,0.00,40.00,13,7,16,0.21
2013-4-18,37,25,10,15,7,-5,94,52,22,0.00,40.00,9,2,10,0.00
2013-4-19,47,37,28,29,19,9,71,48,30,0.00,40.00,29,12,37,0.00
2013-4-20,49,41,34,29,24,18,68,51,34,0.00,40.00,22,7,27,0.00
2013-4-21,51,41,33,29,22,17,71,47,29,0.00,40.00,35,16,46,0.00
2013-4-22,39,20,15,29,19,14,97,93,63,0.00,40.00,16,8,21,0.46
2013-4-23,36,23,7,18,12,4,94,66,31,0.00,40.00,9,3,10,0.02
2013-4-24,48,35,23,21,12,3,66,40,19,0.00,40.00,9,3,17,0.00
2013-4-25,55,46,36,17,6,-4,28,20,11,0.00,40.00,24,10,29,0.00
2013-4-26,63,51,39,20,13,9,36,23,12,0.00,40.00,18,5,22,0.00
2013-4-27,67,56,44,22,17,12,31,23,14,0.00,40.00,22,7,26,0.00
2013-4-28,65,55,46,27,22,15,42,28,15,0.00,40.00,29,14,34,0.00
2013-4-29,62,51,42,30,20,7,45,30,21,0.00,40.00,42,17,60,0.00
2013-4-30,49,34,24,31,27,16,99,79,27,0.00,40.00,23,8,29,0.14
2013-5-1,27,23,20,25,22,17,97,93,80,0.00,40.00,13,6,19,0.31
2013-5-2,50,35,20,24,12,0,87,42,13,0.00,40.00,11,4,15,0.00
2013-5-3,54,46,36,25,16,9,45,30,17,0.00,40.00,12,5,17,0.00
2013-5-4,45,40,34,37,34,23,98,79,42,0.00,40.00,14,8,19,0.08
2013-5-5,51,42,33,35,29,24,90,61,38,0.00,40.00,12,6,18,0.00
2013-5-6,60,50,40,31,27,24,59,43,28,0.00,40.00,15,4,21,0.00
2013-5-7,61,52,43,40,32,27,65,48,31,0.00,40.00,29,7,34,0.00
2013-5-8,58,50,44,38,32,26,78,51,31,0.00,40.00,23,7,32,0.00
2013-5-9,62,52,42,35,30,23,68,45,23,0.00,40.00,23,5,30,0.00
2013-5-10,63,52,44,35,28,-100,67,44,17,0.00,40.00,24,5,28,0.00
2013-5-11,66,54,43,38,30,-100,69,43,24,0.00,40.00,15,5,17,0.00
2013-5-12,74,64,54,33,29,24,36,27,19,0.00,40.00,12,5,15,0.00
2013-5-13,81,70,59,34,28,24,32,21,13,0.00,40.00,21,8,29,0.00
2013-5-14,77,69,57,30,26,20,33,20,13,0.00,40.00,30,10,38,0.00
2013-5-15,74,61,51,45,31,21,77,36,18,0.00,40.00,27,7,35,0.12
2013-5-16,65,53,49,44,26,-100,76,53,27,0.00,40.00,32,12,40,0.01
2013-5-17,69,56,47,46,34,-100,77,52,19,0.00,40.00,34,9,44,0.00
2013-5-18,62,51,42,42,36,29,96,57,31,0.00,40.00,29,13,34,0.04
2013-5-19,46,41,38,42,39,36,97,91,78,0.00,40.00,15,4,17,0.46
2013-5-20,49,44,38,40,36,32,98,76,54,0.00,40.00,22,11,29,0.10
2013-5-21,60,49,38,38,34,32,80,58,39,0.00,40.00,12,4,16,0.00
2013-5-22,64,51,38,45,39,32,87,63,40,0.00,40.00,24,8,30,0.00
2013-5-23,74,56,41,46,34,17,96,56,13,0.00,40.00,28,9,36,0.00
2013-5-24,66,56,47,37,18,4,61,25,10,0.00,40.00,33,13,42,0.00
2013-5-25,73,62,49,24,16,5,29,17,11,0.00,40.00,32,10,40,0.00
2013-5-26,73,61,50,40,27,14,51,29,11,0.00,40.00,22,7,28,0.00
2013-5-27,67,59,49,38,23,15,55,26,14,0.00,40.00,30,12,40,0.00
2013-5-28,61,51,47,44,35,24,77,54,32,0.00,40.00,34,10,42,0.00
2013-5-29,50,45,40,42,39,30,96,81,62,0.00,40.00,14,6,16,0.38
2013-5-30,58,50,39,32,26,21,64,42,24,0.00,40.00,29,11,44,0.00
2013-5-31,57,48,37,35,26,16,74,44,24,0.00,40.00,23,9,32,0.00
2013-6-1,65,50,40,37,33,27,87,57,27,0.00,40.00,16,6,21,0.00
2013-6-2,78,61,45,42,28,20,62,33,13,0.00,40.00,32,12,41,0.00
2013-6-3,67,59,48,34,21,9,48,24,13,0.00,40.00,28,12,34,0.00
2013-6-4,55,47,39,35,31,23,75,55,35,0.00,40.00,16,6,24,0.00
2013-6-5,65,52,38,36,32,27,82,51,26,0.00,40.00,8,3,15,0.00
2013-6-6,73,60,47,42,32,23,55,36,23,0.00,40.00,23,4,29,0.00
2013-6-7,77,64,52,45,36,31,59,38,20,0.00,40.00,17,6,24,0.00
2013-6-8,74,64,52,42,37,28,67,39,20,0.00,40.00,16,5,22,0.00
2013-6-9,85,71,51,40,32,26,54,26,12,0.00,40.00,24,10,33,0.00
2013-6-10,87,76,62,38,30,18,34,19,11,0.00,40.00,35,18,52,0.00
2013-6-11,77,70,60,45,27,14,53,22,11,0.00,40.00,29,12,39,0.00
2013-6-12,81,70,57,43,30,18,51,25,10,0.00,40.00,29,12,39,0.00
2013-6-13,82,69,52,45,32,13,73,29,11,0.00,40.00,32,15,40,0.00
2013-6-14,70,59,44,34,17,1,61,23,9,0.00,40.00,41,18,52,0.00
2013-6-15,75,59,45,34,25,11,59,29,11,0.00,40.00,17,4,22,0.00
2013-6-16,81,68,53,31,21,15,29,18,9,0.00,40.00,16,5,22,0.00
2013-6-17,80,66,50,43,36,25,63,36,14,0.00,40.00,14,4,18,0.00
2013-6-18,77,66,53,44,34,23,61,34,14,0.00,40.00,23,6,43,0.00
2013-6-19,81,66,51,40,26,4,60,26,8,0.00,40.00,37,15,52,0.00
2013-6-20,68,56,45,22,13,0,33,19,9,0.00,40.00,32,12,40,0.00
2013-6-22,70,62,52,45,31,16,74,36,13,0.00,40.00,30,11,40,0.00
2013-6-23,76,62,46,38,27,20,65,31,13,0.00,40.00,31,12,37,0.00
2013-6-24,79,69,54,35,26,22,39,21,12,0.00,40.00,34,15,49,0.00
2013-6-25,74,65,54,42,37,33,63,37,23,0.00,40.00,27,17,33,0.00
2013-6-26,84,73,59,42,36,33,43,27,17,0.00,40.00,28,12,37,0.00
2013-6-27,90,78,64,40,34,30,36,22,12,0.00,40.00,17,6,21,0.00
2013-6-28,86,76,61,49,41,35,52,30,18,0.00,40.00,14,6,23,0.00
2013-6-29,82,70,59,48,45,34,62,41,20,0.00,40.00,29,4,35,0.00
2013-6-30,83,70,59,47,42,32,57,39,19,0.00,40.00,22,5,31,0.00
2013-7-1,82,70,60,45,42,39,55,38,25,0.00,40.00,14,4,17,0.00
2013-7-2,82,71,61,45,39,30,49,34,17,0.00,40.00,18,5,24,0.00
2013-7-3,82,74,63,47,37,28,37,26,19,0.00,40.00,17,4,20,0.00
2013-7-4,81,70,60,55,46,38,81,46,23,0.00,40.00,19,8,23,0.08
2013-7-5,80,66,56,53,49,41,82,59,27,0.00,40.00,12,4,15,0.00
2013-7-6,81,65,57,51,45,33,77,50,21,0.00,40.00,28,6,36,0.00
2013-7-7,86,69,56,51,42,29,82,43,13,0.00,40.00,36,11,44,0.00
2013-7-8,83,66,55,48,39,-100,70,43,17,0.00,40.00,32,12,44,0.00
2013-7-9,88,76,66,39,32,26,34,22,12,0.00,40.00,24,11,30,0.00
2013-7-10,87,73,59,47,31,-100,55,26,11,0.00,40.00,14,4,20,0.00
2013-7-11,91,76,65,42,34,24,41,23,10,0.00,40.00,23,10,27,0.00
2013-7-12,79,70,60,51,43,35,71,41,24,0.00,40.00,25,11,30,0.00
2013-7-13,78,72,64,42,39,37,40,30,23,0.00,40.00,22,11,26,0.00
2013-7-15,87,79,64,53,41,31,58,30,14,0.00,40.00,12,4,17,0.00
2013-7-16,83,73,63,50,45,39,59,38,21,0.00,40.00,24,9,29,0.00
2013-7-17,84,68,57,52,48,42,80,54,24,0.00,40.00,16,4,19,0.00
2013-7-18,89,74,64,52,43,27,64,38,12,0.00,40.00,16,6,19,0.00
2013-7-19,87,75,64,49,42,31,55,34,16,0.00,40.00,13,4,18,0.00
2013-7-20,88,76,64,37,29,-100,31,19,10,0.00,40.00,12,6,18,0.00
2013-7-21,91,77,64,39,28,15,38,19,6,0.00,40.00,20,6,26,0.00
2013-7-22,90,75,64,43,26,11,40,20,5,0.00,40.00,23,7,29,0.00
2013-7-23,86,74,64,32,24,13,23,15,10,0.00,40.00,9,4,14,0.00
2013-7-24,81,70,62,46,38,26,47,31,15,0.00,40.00,24,5,34,0.00
2013-7-25,76,67,60,46,42,38,54,40,29,0.00,40.00,26,10,32,0.00
2013-7-26,85,72,58,44,37,30,59,32,15,0.00,40.00,24,7,28,0.00
2013-7-27,74,67,58,47,41,35,55,39,27,0.00,40.00,19,7,29,0.00
2013-7-28,79,65,54,50,43,34,78,49,20,0.00,40.00,22,8,27,0.00
2013-7-29,74,62,53,43,39,30,60,44,21,0.00,40.00,27,6,35,0.00
2013-7-30,81,66,57,42,39,27,56,39,14,0.00,40.00,22,11,26,0.00
2013-7-31,78,65,53,48,42,34,67,46,20,0.00,40.00,15,5,18,0.01
2013-8-1,88,69,59,44,40,29,56,37,13,0.00,40.00,46,11,52,0.00
2013-8-2,82,70,60,49,36,20,67,36,10,0.00,40.00,31,14,39,0.00
2013-8-3,86,74,59,46,26,20,47,19,9,0.00,40.00,21,7,30,0.00
2013-8-4,89,77,63,46,33,19,47,24,9,0.00,40.00,21,8,27,0.00
2013-8-5,88,76,61,51,31,18,64,25,8,0.00,40.00,22,10,35,0.00
2013-8-6,83,71,60,39,33,20,39,26,11,0.00,40.00,16,6,18,0.00
2013-8-7,83,73,58,44,34,22,54,26,12,0.00,40.00,13,5,24,0.00
2013-8-8,75,66,56,45,39,27,65,39,18,0.00,40.00,32,7,42,0.00
2013-8-9,72,64,58,49,40,34,56,41,27,0.00,40.00,33,8,39,0.00
2013-8-10,78,66,56,44,38,27,64,38,16,0.00,40.00,24,7,29,0.03
2013-8-11,78,68,59,37,33,26,39,28,14,0.00,40.00,22,6,25,0.00